W Vancouver Automatic Weather Reporting System

CWWA · 不列颠哥伦比亚, 加拿大

罗盘
风向 的 风向 080°
风: 8 kt, 3 beaufort

添加一条跑道以查看侧风和逆风信息。

添置 跑道
0 5.000 10.000 15.000 20.000
FEW 2.400 ft
FEW 4.200 ft
SCT 6.700 ft
BKN 8.000 ft
OVC 14.000 ft
METAR CYVR 090900Z 08008KT 15SM FEW024 FEW042 SCT067 BKN080 OVC140 02/02 A2989 RMK SC1SC1AC3AC2AC2 SC TR SLP123

METAR W Vancouver Automatic Weather Reporting System - CWWA

W Vancouver Automatic Weather Reporting System是,加拿大中的未知。 该领域的国际民航组织标志是CWWA.

这份报告是针对2022年12月9日 01:00, 当地时间在溫哥華國際機場进行的。

机场观察

风向为080°,速度为8 kt。

可见度为15 mi。

有几云在2.400 ft的高度, 几云在4.200 ft的高度, 疏云,零星散落的云朵在6.700 ft的高度, 碎云在8.000 ft的高度 和 乌云密布在14.000 ft的高度。 破损或更高的上限为8.000 ft。

温度为2 °C,阵风为-3 °C。 露点为2 °C,相对湿度为100%。 海平面上的气压为29,89 inHg (QNH)。

白天

今天,太阳从07:56升起,在16:13降落。 这适用于W Vancouver Automatic Weather Reporting System,世界夏令时可能有所不同。 当地时间与世界标准时间之间的时差为-8 小时。 当前,没有夏令时有效。

公司介绍

我们没有关于这个机场的公司信息。

体会

到Vliegles.nl去找飞行课程,跳伞和其他飞行体验。 浏览页面,了解W Vancouver Automatic Weather Reporting System附近所有可用的活动。 你也可以使用搜索功能来寻找你所在地附近的特定飞行课程、跳伞或其他飞行体验。

乌云

2.400 ft FEW 几云
4.200 ft FEW 几云
6.700 ft SCT 疏云,零星散落的云朵
8.000 ft BKN 碎云
14.000 ft OVC 乌云密布

温度 & 天气

温度 2 °C
露点 2 °C
相对湿度 100%
风寒 -3 °C
Kp-index 1 (0-9)

评论

SLP123海平面压力为29,89 inHg (29,89 inHg)
SC1SC1AC3AC2AC2 SC TR

白天

日出
07:55 (6:19)
中午
12:05
日落
16:14

小工具

你想在你的网站上有一个关于W Vancouver Automatic Weather Reporting System的当前航空天气(METAR)的小部件吗?

显示HTML代码

我们和第三方通过cookies跟踪您在我们网站上的互联网行为。如果你继续,我们认为你同意我们的饼干政策